Canaan, Connecticut
Current Conditions -  °F | °C
As of 3:39 AM on Saturday 25 Oct 2014 (Local Time) from KPSF Reporting Station
Scattered Clouds Scattered Clouds  
Wind Chill: 38°   Ceiling: Unl
Heat Index: 44°   Visibility: 10mi
Dew Point: 41°   Wind: 13mph
Humidity: 89%   Direction: 300°WNW
Pressure: 29.81"   Gusts: NA
Location:  42.03°N, 73.33°W
Report Text: KPSF 250739Z AUTO 30011KT 10SM SCT008 07/05 A2981 RMK AO2 T00670050
Loading
Personal Weather Stations






























Interactive Weather Map New forecast layout! Learn more

10-Day Weather Forecast

Advertisements
Track Severe Weather on mobile